sensor_id;sensor_type;location;lat;lon;timestamp;temperature;humidity
15328;DHT22;7764;51.430;6.840;2022-11-25T00:01:15;9.30;99.90
15328;DHT22;7764;51.430;6.840;2022-11-25T00:03:43;9.30;99.90
15328;DHT22;7764;51.430;6.840;2022-11-25T00:06:12;9.40;99.90
15328;DHT22;7764;51.430;6.840;2022-11-25T00:08:39;9.40;99.90
15328;DHT22;7764;51.430;6.840;2022-11-25T00:11:07;9.40;99.90
15328;DHT22;7764;51.430;6.840;2022-11-25T00:13:35;9.40;99.90
15328;DHT22;7764;51.430;6.840;2022-11-25T00:16:03;9.40;99.90
15328;DHT22;7764;51.430;6.840;2022-11-25T00:18:30;9.40;99.90
15328;DHT22;7764;51.430;6.840;2022-11-25T00:20:57;9.40;99.90
15328;DHT22;7764;51.430;6.840;2022-11-25T00:23:24;9.40;99.90
15328;DHT22;7764;51.430;6.840;2022-11-25T00:25:51;9.40;99.90
15328;DHT22;7764;51.430;6.840;2022-11-25T00:28:18;9.40;99.90
15328;DHT22;7764;51.430;6.840;2022-11-25T00:30:46;9.40;99.90
15328;DHT22;7764;51.430;6.840;2022-11-25T00:33:13;9.40;99.90
15328;DHT22;7764;51.430;6.840;2022-11-25T00:35:40;9.40;99.90
15328;DHT22;7764;51.430;6.840;2022-11-25T00:38:06;9.50;99.90
15328;DHT22;7764;51.430;6.840;2022-11-25T00:40:33;9.50;99.90
15328;DHT22;7764;51.430;6.840;2022-11-25T00:43:00;9.50;99.90
15328;DHT22;7764;51.430;6.840;2022-11-25T00:45:45;9.50;99.90
15328;DHT22;7764;51.430;6.840;2022-11-25T00:48:12;9.50;99.90
15328;DHT22;7764;51.430;6.840;2022-11-25T00:50:39;9.50;99.90
15328;DHT22;7764;51.430;6.840;2022-11-25T00:53:08;9.50;99.90
15328;DHT22;7764;51.430;6.840;2022-11-25T00:55:35;9.50;99.90
15328;DHT22;7764;51.430;6.840;2022-11-25T00:58:16;9.50;99.90
15328;DHT22;7764;51.430;6.840;2022-11-25T01:00:42;9.50;99.90
15328;DHT22;7764;51.430;6.840;2022-11-25T01:03:11;9.40;99.90
15328;DHT22;7764;51.430;6.840;2022-11-25T01:05:38;9.40;99.90
15328;DHT22;7764;51.430;6.840;2022-11-25T01:08:05;9.40;99.90
15328;DHT22;7764;51.430;6.840;2022-11-25T01:10:31;9.50;99.90
15328;DHT22;7764;51.430;6.840;2022-11-25T01:12:58;9.50;99.90
15328;DHT22;7764;51.430;6.840;2022-11-25T01:15:25;9.50;99.90
15328;DHT22;7764;51.430;6.840;2022-11-25T01:17:52;9.50;99.90
15328;DHT22;7764;51.430;6.840;2022-11-25T01:20:20;9.50;99.90
15328;DHT22;7764;51.430;6.840;2022-11-25T01:22:47;9.60;99.90
15328;DHT22;7764;51.430;6.840;2022-11-25T01:25:14;9.60;99.90
15328;DHT22;7764;51.430;6.840;2022-11-25T01:27:40;9.60;99.90
15328;DHT22;7764;51.430;6.840;2022-11-25T01:30:08;9.60;99.90
15328;DHT22;7764;51.430;6.840;2022-11-25T01:32:35;9.70;99.90
15328;DHT22;7764;51.430;6.840;2022-11-25T01:35:03;9.70;99.90
15328;DHT22;7764;51.430;6.840;2022-11-25T01:37:31;9.70;99.90
15328;DHT22;7764;51.430;6.840;2022-11-25T01:39:58;9.70;99.90
15328;DHT22;7764;51.430;6.840;2022-11-25T01:42:28;9.80;99.90
15328;DHT22;7764;51.430;6.840;2022-11-25T01:48:05;9.80;99.90
15328;DHT22;7764;51.430;6.840;2022-11-25T01:50:37;9.90;99.90
15328;DHT22;7764;51.430;6.840;2022-11-25T01:53:06;9.90;99.90
15328;DHT22;7764;51.430;6.840;2022-11-25T01:55:36;9.90;99.90
15328;DHT22;7764;51.430;6.840;2022-11-25T01:58:06;9.90;99.90
15328;DHT22;7764;51.430;6.840;2022-11-25T02:00:35;9.90;99.90
15328;DHT22;7764;51.430;6.840;2022-11-25T02:03:04;9.90;99.90
15328;DHT22;7764;51.430;6.840;2022-11-25T02:05:36;9.90;99.90
15328;DHT22;7764;51.430;6.840;2022-11-25T02:08:06;10.00;99.90
15328;DHT22;7764;51.430;6.840;2022-11-25T02:10:34;10.00;99.90
15328;DHT22;7764;51.430;6.840;2022-11-25T02:13:01;10.00;99.90
15328;DHT22;7764;51.430;6.840;2022-11-25T02:15:30;10.00;99.90
15328;DHT22;7764;51.430;6.840;2022-11-25T02:17:59;10.10;99.90
15328;DHT22;7764;51.430;6.840;2022-11-25T02:20:29;10.00;99.90
15328;DHT22;7764;51.430;6.840;2022-11-25T02:23:02;10.10;99.90
15328;DHT22;7764;51.430;6.840;2022-11-25T02:25:35;10.10;99.90
15328;DHT22;7764;51.430;6.840;2022-11-25T02:28:05;10.10;99.90
15328;DHT22;7764;51.430;6.840;2022-11-25T02:30:33;10.20;99.90
15328;DHT22;7764;51.430;6.840;2022-11-25T02:33:00;10.10;99.90
15328;DHT22;7764;51.430;6.840;2022-11-25T02:35:32;10.20;99.90
15328;DHT22;7764;51.430;6.840;2022-11-25T02:38:04;10.20;99.90
15328;DHT22;7764;51.430;6.840;2022-11-25T02:40:36;10.20;99.90
15328;DHT22;7764;51.430;6.840;2022-11-25T02:43:05;10.20;99.90
15328;DHT22;7764;51.430;6.840;2022-11-25T02:45:40;10.20;99.90
15328;DHT22;7764;51.430;6.840;2022-11-25T02:48:07;10.20;99.90
15328;DHT22;7764;51.430;6.840;2022-11-25T02:50:34;10.20;99.90
15328;DHT22;7764;51.430;6.840;2022-11-25T02:53:01;10.30;99.90
15328;DHT22;7764;51.430;6.840;2022-11-25T02:55:28;10.30;99.90
15328;DHT22;7764;51.430;6.840;2022-11-25T02:57:56;10.30;99.90
15328;DHT22;7764;51.430;6.840;2022-11-25T03:00:23;10.30;99.90
15328;DHT22;7764;51.430;6.840;2022-11-25T03:02:52;10.30;99.90
15328;DHT22;7764;51.430;6.840;2022-11-25T03:05:19;10.30;99.90
15328;DHT22;7764;51.430;6.840;2022-11-25T03:07:45;10.20;99.90
15328;DHT22;7764;51.430;6.840;2022-11-25T03:10:12;10.20;99.90
15328;DHT22;7764;51.430;6.840;2022-11-25T03:12:39;10.20;99.90
15328;DHT22;7764;51.430;6.840;2022-11-25T03:15:08;10.20;99.90
15328;DHT22;7764;51.430;6.840;2022-11-25T03:17:35;10.20;99.90
15328;DHT22;7764;51.430;6.840;2022-11-25T03:20:02;10.20;99.90
15328;DHT22;7764;51.430;6.840;2022-11-25T03:22:29;10.10;99.90
15328;DHT22;7764;51.430;6.840;2022-11-25T03:24:56;10.10;99.90
15328;DHT22;7764;51.430;6.840;2022-11-25T03:27:23;10.10;99.90
15328;DHT22;7764;51.430;6.840;2022-11-25T03:29:50;10.10;99.90
15328;DHT22;7764;51.430;6.840;2022-11-25T03:32:18;10.10;99.90
15328;DHT22;7764;51.430;6.840;2022-11-25T03:34:45;10.10;99.90
15328;DHT22;7764;51.430;6.840;2022-11-25T03:37:12;10.20;99.90
15328;DHT22;7764;51.430;6.840;2022-11-25T03:39:38;10.20;99.90
15328;DHT22;7764;51.430;6.840;2022-11-25T03:42:05;10.20;99.90
15328;DHT22;7764;51.430;6.840;2022-11-25T03:44:32;10.20;99.90
15328;DHT22;7764;51.430;6.840;2022-11-25T03:46:59;10.20;99.90
15328;DHT22;7764;51.430;6.840;2022-11-25T03:49:27;10.20;99.90
15328;DHT22;7764;51.430;6.840;2022-11-25T03:51:54;10.20;99.90
15328;DHT22;7764;51.430;6.840;2022-11-25T03:54:21;10.20;99.90
15328;DHT22;7764;51.430;6.840;2022-11-25T03:56:47;10.20;99.90
15328;DHT22;7764;51.430;6.840;2022-11-25T03:59:14;10.30;99.90
15328;DHT22;7764;51.430;6.840;2022-11-25T04:01:41;10.20;99.90
15328;DHT22;7764;51.430;6.840;2022-11-25T04:04:08;10.20;99.90
15328;DHT22;7764;51.430;6.840;2022-11-25T04:06:36;10.20;99.90
15328;DHT22;7764;51.430;6.840;2022-11-25T04:09:04;10.20;99.90
15328;DHT22;7764;51.430;6.840;2022-11-25T04:11:30;10.20;99.90
15328;DHT22;7764;51.430;6.840;2022-11-25T04:14:11;10.20;99.90
15328;DHT22;7764;51.430;6.840;2022-11-25T04:16:38;10.10;99.90
15328;DHT22;7764;51.430;6.840;2022-11-25T04:19:05;10.10;99.90
15328;DHT22;7764;51.430;6.840;2022-11-25T04:21:32;10.10;99.90
15328;DHT22;7764;51.430;6.840;2022-11-25T04:24:00;10.10;99.90
15328;DHT22;7764;51.430;6.840;2022-11-25T04:26:27;10.00;99.90
15328;DHT22;7764;51.430;6.840;2022-11-25T04:28:54;10.00;99.90
15328;DHT22;7764;51.430;6.840;2022-11-25T04:31:21;10.00;99.90
15328;DHT22;7764;51.430;6.840;2022-11-25T04:33:48;10.00;99.90
15328;DHT22;7764;51.430;6.840;2022-11-25T04:36:15;10.00;99.90
15328;DHT22;7764;51.430;6.840;2022-11-25T04:38:42;9.90;99.90
15328;DHT22;7764;51.430;6.840;2022-11-25T04:41:10;9.90;99.90
15328;DHT22;7764;51.430;6.840;2022-11-25T04:43:37;9.90;99.90
15328;DHT22;7764;51.430;6.840;2022-11-25T04:46:04;9.90;99.90
15328;DHT22;7764;51.430;6.840;2022-11-25T04:48:31;9.90;99.90
15328;DHT22;7764;51.430;6.840;2022-11-25T04:50:58;9.90;99.90
15328;DHT22;7764;51.430;6.840;2022-11-25T04:53:25;9.90;99.90
15328;DHT22;7764;51.430;6.840;2022-11-25T04:55:52;9.80;99.90
15328;DHT22;7764;51.430;6.840;2022-11-25T04:58:20;9.80;99.90
15328;DHT22;7764;51.430;6.840;2022-11-25T05:01:00;9.80;99.90
15328;DHT22;7764;51.430;6.840;2022-11-25T05:03:27;9.80;99.90
15328;DHT22;7764;51.430;6.840;2022-11-25T05:05:54;9.80;99.90
15328;DHT22;7764;51.430;6.840;2022-11-25T05:08:21;9.80;99.90
15328;DHT22;7764;51.430;6.840;2022-11-25T05:10:48;9.80;99.90
15328;DHT22;7764;51.430;6.840;2022-11-25T05:13:15;9.80;99.90
15328;DHT22;7764;51.430;6.840;2022-11-25T05:15:43;9.80;99.90
15328;DHT22;7764;51.430;6.840;2022-11-25T05:18:10;9.80;99.90
15328;DHT22;7764;51.430;6.840;2022-11-25T05:20:37;9.80;99.90
15328;DHT22;7764;51.430;6.840;2022-11-25T05:23:04;9.70;99.90
15328;DHT22;7764;51.430;6.840;2022-11-25T05:25:30;9.80;99.90
15328;DHT22;7764;51.430;6.840;2022-11-25T05:27:57;9.70;99.90
15328;DHT22;7764;51.430;6.840;2022-11-25T05:30:24;9.80;99.90
15328;DHT22;7764;51.430;6.840;2022-11-25T05:32:52;9.70;99.90
15328;DHT22;7764;51.430;6.840;2022-11-25T05:35:19;9.70;99.90
15328;DHT22;7764;51.430;6.840;2022-11-25T05:37:46;9.70;99.90
15328;DHT22;7764;51.430;6.840;2022-11-25T05:40:13;9.60;99.90
15328;DHT22;7764;51.430;6.840;2022-11-25T05:42:40;9.60;99.90
15328;DHT22;7764;51.430;6.840;2022-11-25T05:45:08;9.70;99.90
15328;DHT22;7764;51.430;6.840;2022-11-25T05:47:35;9.70;99.90
15328;DHT22;7764;51.430;6.840;2022-11-25T05:50:04;9.70;99.90
15328;DHT22;7764;51.430;6.840;2022-11-25T05:52:31;9.60;99.90
15328;DHT22;7764;51.430;6.840;2022-11-25T05:54:58;9.60;99.90
15328;DHT22;7764;51.430;6.840;2022-11-25T05:57:25;9.60;99.90
15328;DHT22;7764;51.430;6.840;2022-11-25T05:59:53;9.60;99.90
15328;DHT22;7764;51.430;6.840;2022-11-25T06:02:20;9.60;99.90
15328;DHT22;7764;51.430;6.840;2022-11-25T06:04:46;9.60;99.90
15328;DHT22;7764;51.430;6.840;2022-11-25T06:07:14;9.60;99.90
15328;DHT22;7764;51.430;6.840;2022-11-25T06:09:41;9.60;99.90
15328;DHT22;7764;51.430;6.840;2022-11-25T06:12:08;9.60;99.90
15328;DHT22;7764;51.430;6.840;2022-11-25T06:14:35;9.60;99.90
15328;DHT22;7764;51.430;6.840;2022-11-25T06:17:02;9.50;99.90
15328;DHT22;7764;51.430;6.840;2022-11-25T06:19:29;9.50;99.90
15328;DHT22;7764;51.430;6.840;2022-11-25T06:21:55;9.50;99.90
15328;DHT22;7764;51.430;6.840;2022-11-25T06:24:24;9.60;99.90
15328;DHT22;7764;51.430;6.840;2022-11-25T06:26:51;9.60;99.90
15328;DHT22;7764;51.430;6.840;2022-11-25T06:29:18;9.60;99.90
15328;DHT22;7764;51.430;6.840;2022-11-25T06:31:45;9.60;99.90
15328;DHT22;7764;51.430;6.840;2022-11-25T06:34:11;9.60;99.90
15328;DHT22;7764;51.430;6.840;2022-11-25T06:36:38;9.50;99.90
15328;DHT22;7764;51.430;6.840;2022-11-25T06:39:05;9.40;99.90
15328;DHT22;7764;51.430;6.840;2022-11-25T06:41:33;9.50;99.90
15328;DHT22;7764;51.430;6.840;2022-11-25T06:44:00;9.50;99.90
15328;DHT22;7764;51.430;6.840;2022-11-25T06:46:27;9.40;99.90
15328;DHT22;7764;51.430;6.840;2022-11-25T06:48:54;9.40;99.90
15328;DHT22;7764;51.430;6.840;2022-11-25T06:51:21;9.40;99.90
15328;DHT22;7764;51.430;6.840;2022-11-25T06:53:49;9.40;99.90
15328;DHT22;7764;51.430;6.840;2022-11-25T06:56:18;9.50;99.90
15328;DHT22;7764;51.430;6.840;2022-11-25T06:58:46;9.50;99.90
15328;DHT22;7764;51.430;6.840;2022-11-25T07:01:15;9.50;99.90
15328;DHT22;7764;51.430;6.840;2022-11-25T07:03:43;9.50;99.90
15328;DHT22;7764;51.430;6.840;2022-11-25T07:06:11;9.50;99.90
15328;DHT22;7764;51.430;6.840;2022-11-25T07:08:39;9.40;99.90
15328;DHT22;7764;51.430;6.840;2022-11-25T07:11:08;9.40;99.90
15328;DHT22;7764;51.430;6.840;2022-11-25T07:13:35;9.50;99.90
15328;DHT22;7764;51.430;6.840;2022-11-25T07:16:05;9.50;99.90
15328;DHT22;7764;51.430;6.840;2022-11-25T07:18:32;9.50;99.90
15328;DHT22;7764;51.430;6.840;2022-11-25T07:21:04;9.50;99.90
15328;DHT22;7764;51.430;6.840;2022-11-25T07:23:32;9.50;99.90
15328;DHT22;7764;51.430;6.840;2022-11-25T07:26:03;9.50;99.90
15328;DHT22;7764;51.430;6.840;2022-11-25T07:28:30;9.50;99.90
15328;DHT22;7764;51.430;6.840;2022-11-25T07:31:05;9.50;99.90
15328;DHT22;7764;51.430;6.840;2022-11-25T07:33:32;9.50;99.90
15328;DHT22;7764;51.430;6.840;2022-11-25T07:36:01;9.50;99.90
15328;DHT22;7764;51.430;6.840;2022-11-25T07:38:28;9.50;99.90
15328;DHT22;7764;51.430;6.840;2022-11-25T07:40:55;9.40;99.90
15328;DHT22;7764;51.430;6.840;2022-11-25T07:43:21;9.40;99.90
15328;DHT22;7764;51.430;6.840;2022-11-25T07:45:48;9.40;99.90
15328;DHT22;7764;51.430;6.840;2022-11-25T07:48:16;9.40;99.90
15328;DHT22;7764;51.430;6.840;2022-11-25T07:50:43;9.40;99.90
15328;DHT22;7764;51.430;6.840;2022-11-25T07:53:11;9.30;99.90
15328;DHT22;7764;51.430;6.840;2022-11-25T07:55:38;9.30;99.90
15328;DHT22;7764;51.430;6.840;2022-11-25T07:58:05;9.30;99.90
15328;DHT22;7764;51.430;6.840;2022-11-25T08:00:31;9.30;99.90
15328;DHT22;7764;51.430;6.840;2022-11-25T08:02:58;9.30;99.90
15328;DHT22;7764;51.430;6.840;2022-11-25T08:05:26;9.30;99.90
15328;DHT22;7764;51.430;6.840;2022-11-25T08:07:53;9.30;99.90
15328;DHT22;7764;51.430;6.840;2022-11-25T08:10:20;9.30;99.90
15328;DHT22;7764;51.430;6.840;2022-11-25T08:12:47;9.30;99.90
15328;DHT22;7764;51.430;6.840;2022-11-25T08:15:13;9.30;99.90
15328;DHT22;7764;51.430;6.840;2022-11-25T08:17:40;9.40;99.90
15328;DHT22;7764;51.430;6.840;2022-11-25T08:20:08;9.50;99.90
15328;DHT22;7764;51.430;6.840;2022-11-25T08:22:36;9.50;99.90
15328;DHT22;7764;51.430;6.840;2022-11-25T08:25:03;9.50;99.90
15328;DHT22;7764;51.430;6.840;2022-11-25T08:27:30;9.50;99.90
15328;DHT22;7764;51.430;6.840;2022-11-25T08:29:57;9.50;99.90
15328;DHT22;7764;51.430;6.840;2022-11-25T08:32:24;9.40;99.90
15328;DHT22;7764;51.430;6.840;2022-11-25T08:34:51;9.50;99.90
15328;DHT22;7764;51.430;6.840;2022-11-25T08:37:18;9.50;99.90
15328;DHT22;7764;51.430;6.840;2022-11-25T08:39:48;9.50;99.90
15328;DHT22;7764;51.430;6.840;2022-11-25T08:42:15;9.50;99.90
15328;DHT22;7764;51.430;6.840;2022-11-25T08:44:42;9.40;99.90
15328;DHT22;7764;51.430;6.840;2022-11-25T08:47:09;9.50;99.90
15328;DHT22;7764;51.430;6.840;2022-11-25T08:49:36;9.50;99.90
15328;DHT22;7764;51.430;6.840;2022-11-25T08:52:03;9.40;99.90
15328;DHT22;7764;51.430;6.840;2022-11-25T08:54:30;9.40;99.90
15328;DHT22;7764;51.430;6.840;2022-11-25T08:56:58;9.50;99.90
15328;DHT22;7764;51.430;6.840;2022-11-25T08:59:25;9.50;99.90
15328;DHT22;7764;51.430;6.840;2022-11-25T09:01:53;9.70;99.90
15328;DHT22;7764;51.430;6.840;2022-11-25T09:04:20;9.70;99.90
15328;DHT22;7764;51.430;6.840;2022-11-25T09:06:47;9.80;99.90
15328;DHT22;7764;51.430;6.840;2022-11-25T09:09:14;9.90;99.90
15328;DHT22;7764;51.430;6.840;2022-11-25T09:11:41;9.90;99.90
15328;DHT22;7764;51.430;6.840;2022-11-25T09:14:09;9.90;99.90
15328;DHT22;7764;51.430;6.840;2022-11-25T09:16:36;9.90;99.90
15328;DHT22;7764;51.430;6.840;2022-11-25T09:19:03;9.90;99.90
15328;DHT22;7764;51.430;6.840;2022-11-25T09:21:31;9.90;99.90
15328;DHT22;7764;51.430;6.840;2022-11-25T09:23:58;9.90;99.90
15328;DHT22;7764;51.430;6.840;2022-11-25T09:26:27;10.00;99.90
15328;DHT22;7764;51.430;6.840;2022-11-25T09:28:54;10.00;99.90
15328;DHT22;7764;51.430;6.840;2022-11-25T09:31:23;10.00;99.90
15328;DHT22;7764;51.430;6.840;2022-11-25T09:33:50;10.00;99.90
15328;DHT22;7764;51.430;6.840;2022-11-25T09:36:18;10.10;99.90
15328;DHT22;7764;51.430;6.840;2022-11-25T09:38:46;10.30;99.90
15328;DHT22;7764;51.430;6.840;2022-11-25T09:41:22;10.50;99.90
15328;DHT22;7764;51.430;6.840;2022-11-25T09:44:12;10.60;99.90
15328;DHT22;7764;51.430;6.840;2022-11-25T09:47:05;10.60;99.90
15328;DHT22;7764;51.430;6.840;2022-11-25T09:49:46;10.70;99.90
15328;DHT22;7764;51.430;6.840;2022-11-25T09:52:29;10.60;99.90
15328;DHT22;7764;51.430;6.840;2022-11-25T09:55:02;10.60;99.90
15328;DHT22;7764;51.430;6.840;2022-11-25T09:57:41;10.50;99.90
15328;DHT22;7764;51.430;6.840;2022-11-25T10:00:12;10.60;99.90
15328;DHT22;7764;51.430;6.840;2022-11-25T10:02:44;10.60;99.90
15328;DHT22;7764;51.430;6.840;2022-11-25T10:05:19;10.70;99.90
15328;DHT22;7764;51.430;6.840;2022-11-25T10:07:50;10.80;99.90
15328;DHT22;7764;51.430;6.840;2022-11-25T10:10:24;10.80;99.90
15328;DHT22;7764;51.430;6.840;2022-11-25T10:12:53;10.90;99.90
15328;DHT22;7764;51.430;6.840;2022-11-25T10:15:25;10.90;99.90
15328;DHT22;7764;51.430;6.840;2022-11-25T10:17:57;11.00;99.90
15328;DHT22;7764;51.430;6.840;2022-11-25T10:20:28;11.00;99.90
15328;DHT22;7764;51.430;6.840;2022-11-25T10:22:59;11.10;99.90
15328;DHT22;7764;51.430;6.840;2022-11-25T10:25:29;11.10;99.90
15328;DHT22;7764;51.430;6.840;2022-11-25T10:27:59;11.20;99.90
15328;DHT22;7764;51.430;6.840;2022-11-25T10:30:31;11.30;99.90
15328;DHT22;7764;51.430;6.840;2022-11-25T10:33:06;11.30;99.90
15328;DHT22;7764;51.430;6.840;2022-11-25T10:35:38;11.40;99.90
15328;DHT22;7764;51.430;6.840;2022-11-25T10:38:13;11.40;99.90
15328;DHT22;7764;51.430;6.840;2022-11-25T10:40:43;11.40;99.90
15328;DHT22;7764;51.430;6.840;2022-11-25T10:43:12;11.40;99.90
15328;DHT22;7764;51.430;6.840;2022-11-25T10:45:46;11.50;99.90
15328;DHT22;7764;51.430;6.840;2022-11-25T10:48:24;11.60;99.90
15328;DHT22;7764;51.430;6.840;2022-11-25T10:51:06;11.70;99.90
15328;DHT22;7764;51.430;6.840;2022-11-25T10:53:37;11.70;99.90
15328;DHT22;7764;51.430;6.840;2022-11-25T10:56:09;11.70;99.90
15328;DHT22;7764;51.430;6.840;2022-11-25T10:58:37;11.70;99.90
15328;DHT22;7764;51.430;6.840;2022-11-25T11:01:12;11.80;99.90
15328;DHT22;7764;51.430;6.840;2022-11-25T11:03:45;11.90;99.90
15328;DHT22;7764;51.430;6.840;2022-11-25T11:06:30;12.00;99.90
15328;DHT22;7764;51.430;6.840;2022-11-25T11:08:58;12.10;99.90
15328;DHT22;7764;51.430;6.840;2022-11-25T11:11:25;12.20;99.90
15328;DHT22;7764;51.430;6.840;2022-11-25T11:14:12;12.20;99.90
15328;DHT22;7764;51.430;6.840;2022-11-25T11:16:41;12.10;99.90
15328;DHT22;7764;51.430;6.840;2022-11-25T11:19:22;12.10;99.90
15328;DHT22;7764;51.430;6.840;2022-11-25T11:21:51;12.00;99.90
15328;DHT22;7764;51.430;6.840;2022-11-25T11:24:27;12.10;99.90
15328;DHT22;7764;51.430;6.840;2022-11-25T11:27:06;12.10;99.90
15328;DHT22;7764;51.430;6.840;2022-11-25T11:29:40;12.20;99.90
15328;DHT22;7764;51.430;6.840;2022-11-25T11:32:19;12.20;99.90
15328;DHT22;7764;51.430;6.840;2022-11-25T11:34:57;12.20;99.90
15328;DHT22;7764;51.430;6.840;2022-11-25T11:37:39;12.20;99.90
15328;DHT22;7764;51.430;6.840;2022-11-25T11:40:31;12.20;99.90
15328;DHT22;7764;51.430;6.840;2022-11-25T11:43:16;12.20;99.90
15328;DHT22;7764;51.430;6.840;2022-11-25T11:46:03;12.30;99.90
15328;DHT22;7764;51.430;6.840;2022-11-25T11:48:37;12.30;99.90
15328;DHT22;7764;51.430;6.840;2022-11-25T11:51:12;12.30;99.90
15328;DHT22;7764;51.430;6.840;2022-11-25T11:53:50;12.30;99.90
15328;DHT22;7764;51.430;6.840;2022-11-25T11:56:26;12.20;99.90
15328;DHT22;7764;51.430;6.840;2022-11-25T11:59:05;12.30;99.90
15328;DHT22;7764;51.430;6.840;2022-11-25T12:01:44;12.30;99.90
15328;DHT22;7764;51.430;6.840;2022-11-25T12:04:18;12.30;99.90
15328;DHT22;7764;51.430;6.840;2022-11-25T12:06:57;12.30;99.90
15328;DHT22;7764;51.430;6.840;2022-11-25T12:09:30;12.30;99.90
15328;DHT22;7764;51.430;6.840;2022-11-25T12:12:01;12.40;99.90
15328;DHT22;7764;51.430;6.840;2022-11-25T12:14:34;12.40;99.90
15328;DHT22;7764;51.430;6.840;2022-11-25T12:17:13;12.50;99.90
15328;DHT22;7764;51.430;6.840;2022-11-25T12:19:48;12.50;99.90
15328;DHT22;7764;51.430;6.840;2022-11-25T12:22:24;12.50;99.90
15328;DHT22;7764;51.430;6.840;2022-11-25T12:25:01;12.40;99.90
15328;DHT22;7764;51.430;6.840;2022-11-25T12:27:33;12.30;99.90
15328;DHT22;7764;51.430;6.840;2022-11-25T12:30:04;12.30;99.90
15328;DHT22;7764;51.430;6.840;2022-11-25T12:32:46;12.40;99.90
15328;DHT22;7764;51.430;6.840;2022-11-25T12:35:21;12.30;99.90
15328;DHT22;7764;51.430;6.840;2022-11-25T12:37:57;12.40;99.90
15328;DHT22;7764;51.430;6.840;2022-11-25T12:40:32;12.40;99.90
15328;DHT22;7764;51.430;6.840;2022-11-25T12:43:08;12.40;99.90
15328;DHT22;7764;51.430;6.840;2022-11-25T12:45:39;12.30;99.90
15328;DHT22;7764;51.430;6.840;2022-11-25T12:48:08;12.30;99.90
15328;DHT22;7764;51.430;6.840;2022-11-25T12:50:46;12.30;99.90
15328;DHT22;7764;51.430;6.840;2022-11-25T12:53:24;12.30;99.90
15328;DHT22;7764;51.430;6.840;2022-11-25T12:55:57;12.30;99.90
15328;DHT22;7764;51.430;6.840;2022-11-25T12:58:48;12.30;99.90
15328;DHT22;7764;51.430;6.840;2022-11-25T13:07:24;12.20;99.90
15328;DHT22;7764;51.430;6.840;2022-11-25T13:10:19;12.10;99.90
15328;DHT22;7764;51.430;6.840;2022-11-25T13:12:58;12.10;99.90
15328;DHT22;7764;51.430;6.840;2022-11-25T13:15:31;12.10;99.90
15328;DHT22;7764;51.430;6.840;2022-11-25T13:18:08;12.00;99.90
15328;DHT22;7764;51.430;6.840;2022-11-25T13:20:43;12.10;99.90
15328;DHT22;7764;51.430;6.840;2022-11-25T13:23:28;12.10;99.90
15328;DHT22;7764;51.430;6.840;2022-11-25T13:32:25;12.20;99.90
15328;DHT22;7764;51.430;6.840;2022-11-25T13:37:59;12.20;99.90
15328;DHT22;7764;51.430;6.840;2022-11-25T13:40:35;12.30;99.90
15328;DHT22;7764;51.430;6.840;2022-11-25T13:43:04;12.30;99.90
15328;DHT22;7764;51.430;6.840;2022-11-25T13:45:47;12.30;99.90
15328;DHT22;7764;51.430;6.840;2022-11-25T13:48:19;12.30;99.90
15328;DHT22;7764;51.430;6.840;2022-11-25T13:50:49;12.30;99.90
15328;DHT22;7764;51.430;6.840;2022-11-25T13:53:23;12.30;99.90
15328;DHT22;7764;51.430;6.840;2022-11-25T13:56:11;12.40;99.90
15328;DHT22;7764;51.430;6.840;2022-11-25T14:01:52;12.30;99.90
15328;DHT22;7764;51.430;6.840;2022-11-25T14:04:31;12.40;99.90
15328;DHT22;7764;51.430;6.840;2022-11-25T14:07:14;12.40;99.90
15328;DHT22;7764;51.430;6.840;2022-11-25T14:09:59;12.40;99.90
15328;DHT22;7764;51.430;6.840;2022-11-25T14:12:56;12.30;99.90
15328;DHT22;7764;51.430;6.840;2022-11-25T14:15:50;12.40;99.90
15328;DHT22;7764;51.430;6.840;2022-11-25T14:18:39;12.40;99.90
15328;DHT22;7764;51.430;6.840;2022-11-25T14:21:18;12.30;99.90
15328;DHT22;7764;51.430;6.840;2022-11-25T14:24:02;12.30;99.90
15328;DHT22;7764;51.430;6.840;2022-11-25T14:26:36;12.20;99.90
15328;DHT22;7764;51.430;6.840;2022-11-25T14:29:08;12.20;99.90
15328;DHT22;7764;51.430;6.840;2022-11-25T14:31:42;12.20;99.90
15328;DHT22;7764;51.430;6.840;2022-11-25T14:34:16;12.20;99.90
15328;DHT22;7764;51.430;6.840;2022-11-25T14:36:49;12.20;99.90
15328;DHT22;7764;51.430;6.840;2022-11-25T14:39:22;12.20;99.90
15328;DHT22;7764;51.430;6.840;2022-11-25T14:41:58;12.20;99.90
15328;DHT22;7764;51.430;6.840;2022-11-25T14:44:28;12.20;99.90
15328;DHT22;7764;51.430;6.840;2022-11-25T14:47:03;12.20;99.90
15328;DHT22;7764;51.430;6.840;2022-11-25T14:49:46;12.20;99.90
15328;DHT22;7764;51.430;6.840;2022-11-25T14:52:22;12.20;99.90
15328;DHT22;7764;51.430;6.840;2022-11-25T14:54:53;12.10;99.90
15328;DHT22;7764;51.430;6.840;2022-11-25T14:57:24;12.10;99.90
15328;DHT22;7764;51.430;6.840;2022-11-25T14:59:52;12.10;99.90
15328;DHT22;7764;51.430;6.840;2022-11-25T15:02:25;12.10;99.90
15328;DHT22;7764;51.430;6.840;2022-11-25T15:05:00;12.10;99.90
15328;DHT22;7764;51.430;6.840;2022-11-25T15:07:27;12.10;99.90
15328;DHT22;7764;51.430;6.840;2022-11-25T15:09:54;12.00;99.90
15328;DHT22;7764;51.430;6.840;2022-11-25T15:12:22;12.00;99.90
15328;DHT22;7764;51.430;6.840;2022-11-25T15:14:52;11.90;99.90
15328;DHT22;7764;51.430;6.840;2022-11-25T15:17:25;11.90;99.90
15328;DHT22;7764;51.430;6.840;2022-11-25T15:19:56;11.80;99.90
15328;DHT22;7764;51.430;6.840;2022-11-25T15:22:24;11.80;99.90
15328;DHT22;7764;51.430;6.840;2022-11-25T15:24:52;11.80;99.90
15328;DHT22;7764;51.430;6.840;2022-11-25T15:27:21;11.90;99.90
15328;DHT22;7764;51.430;6.840;2022-11-25T15:29:51;11.90;99.90
15328;DHT22;7764;51.430;6.840;2022-11-25T15:32:23;11.80;99.90
15328;DHT22;7764;51.430;6.840;2022-11-25T15:34:51;11.90;99.90
15328;DHT22;7764;51.430;6.840;2022-11-25T15:37:21;11.80;99.90
15328;DHT22;7764;51.430;6.840;2022-11-25T15:39:48;11.80;99.90
15328;DHT22;7764;51.430;6.840;2022-11-25T15:42:18;11.80;99.90
15328;DHT22;7764;51.430;6.840;2022-11-25T15:44:48;11.80;99.90
15328;DHT22;7764;51.430;6.840;2022-11-25T15:47:20;11.80;99.90
15328;DHT22;7764;51.430;6.840;2022-11-25T15:49:53;11.80;99.90
15328;DHT22;7764;51.430;6.840;2022-11-25T15:52:26;11.80;99.90
15328;DHT22;7764;51.430;6.840;2022-11-25T15:54:58;11.80;99.90
15328;DHT22;7764;51.430;6.840;2022-11-25T15:57:30;11.80;99.90
15328;DHT22;7764;51.430;6.840;2022-11-25T16:00:13;11.70;99.90
15328;DHT22;7764;51.430;6.840;2022-11-25T16:02:55;11.70;99.90
15328;DHT22;7764;51.430;6.840;2022-11-25T16:05:34;11.70;99.90
15328;DHT22;7764;51.430;6.840;2022-11-25T16:08:26;11.70;99.90
15328;DHT22;7764;51.430;6.840;2022-11-25T16:10:56;11.70;99.90
15328;DHT22;7764;51.430;6.840;2022-11-25T16:13:28;11.70;99.90
15328;DHT22;7764;51.430;6.840;2022-11-25T16:15:58;11.70;99.90
15328;DHT22;7764;51.430;6.840;2022-11-25T16:18:31;11.70;99.90
15328;DHT22;7764;51.430;6.840;2022-11-25T16:21:02;11.70;99.90
15328;DHT22;7764;51.430;6.840;2022-11-25T16:23:35;11.60;99.90
15328;DHT22;7764;51.430;6.840;2022-11-25T16:26:06;11.60;99.90
15328;DHT22;7764;51.430;6.840;2022-11-25T16:28:40;11.60;99.90
15328;DHT22;7764;51.430;6.840;2022-11-25T16:31:09;11.60;99.90
15328;DHT22;7764;51.430;6.840;2022-11-25T16:33:40;11.60;99.90
15328;DHT22;7764;51.430;6.840;2022-11-25T16:36:08;11.60;99.90